sensor_id;sensor_type;location;lat;lon;timestamp;temperature;humidity
44477;DHT22;30180;44.788;10.366;2023-06-19T00:01:22;23.40;67.90
44477;DHT22;30180;44.788;10.366;2023-06-19T00:03:50;23.40;67.80
44477;DHT22;30180;44.788;10.366;2023-06-19T00:06:18;23.40;67.80
44477;DHT22;30180;44.788;10.366;2023-06-19T00:08:48;23.40;67.80
44477;DHT22;30180;44.788;10.366;2023-06-19T00:11:16;23.40;67.80
44477;DHT22;30180;44.788;10.366;2023-06-19T00:13:44;23.40;67.80
44477;DHT22;30180;44.788;10.366;2023-06-19T00:16:13;23.40;67.80
44477;DHT22;30180;44.788;10.366;2023-06-19T00:18:41;23.40;67.80
44477;DHT22;30180;44.788;10.366;2023-06-19T00:21:10;23.40;67.70
44477;DHT22;30180;44.788;10.366;2023-06-19T00:23:38;23.40;67.70
44477;DHT22;30180;44.788;10.366;2023-06-19T00:26:08;23.40;67.70
44477;DHT22;30180;44.788;10.366;2023-06-19T00:28:38;23.40;67.70
44477;DHT22;30180;44.788;10.366;2023-06-19T00:31:08;23.40;67.70
44477;DHT22;30180;44.788;10.366;2023-06-19T00:33:37;23.40;67.70
44477;DHT22;30180;44.788;10.366;2023-06-19T00:36:09;23.40;67.70
44477;DHT22;30180;44.788;10.366;2023-06-19T00:38:38;23.40;67.70
44477;DHT22;30180;44.788;10.366;2023-06-19T00:41:08;23.40;67.70
44477;DHT22;30180;44.788;10.366;2023-06-19T00:43:36;23.40;67.70
44477;DHT22;30180;44.788;10.366;2023-06-19T00:46:04;23.40;67.60
44477;DHT22;30180;44.788;10.366;2023-06-19T00:48:34;23.40;67.60
44477;DHT22;30180;44.788;10.366;2023-06-19T00:51:02;23.40;67.60
44477;DHT22;30180;44.788;10.366;2023-06-19T00:53:31;23.40;67.60
44477;DHT22;30180;44.788;10.366;2023-06-19T00:56:00;23.40;67.60
44477;DHT22;30180;44.788;10.366;2023-06-19T00:58:31;23.40;67.60
44477;DHT22;30180;44.788;10.366;2023-06-19T01:00:59;23.40;67.50
44477;DHT22;30180;44.788;10.366;2023-06-19T01:03:35;23.40;67.50
44477;DHT22;30180;44.788;10.366;2023-06-19T01:06:07;23.40;67.50
44477;DHT22;30180;44.788;10.366;2023-06-19T01:08:43;23.40;67.50
44477;DHT22;30180;44.788;10.366;2023-06-19T01:11:17;23.40;67.50
44477;DHT22;30180;44.788;10.366;2023-06-19T01:13:56;23.40;67.40
44477;DHT22;30180;44.788;10.366;2023-06-19T01:16:27;23.30;67.40
44477;DHT22;30180;44.788;10.366;2023-06-19T01:18:57;23.40;67.40
44477;DHT22;30180;44.788;10.366;2023-06-19T01:21:25;23.40;67.40
44477;DHT22;30180;44.788;10.366;2023-06-19T01:23:55;23.40;67.40
44477;DHT22;30180;44.788;10.366;2023-06-19T01:26:24;23.40;67.40
44477;DHT22;30180;44.788;10.366;2023-06-19T01:28:55;23.40;68.00
44477;DHT22;30180;44.788;10.366;2023-06-19T01:31:28;23.40;67.40
44477;DHT22;30180;44.788;10.366;2023-06-19T01:33:59;23.40;67.30
44477;DHT22;30180;44.788;10.366;2023-06-19T01:36:29;23.40;67.30
44477;DHT22;30180;44.788;10.366;2023-06-19T01:39:00;23.40;67.30
44477;DHT22;30180;44.788;10.366;2023-06-19T01:41:28;23.40;67.30
44477;DHT22;30180;44.788;10.366;2023-06-19T01:43:58;23.40;67.30
44477;DHT22;30180;44.788;10.366;2023-06-19T01:46:27;23.40;67.20
44477;DHT22;30180;44.788;10.366;2023-06-19T01:48:55;23.40;67.20
44477;DHT22;30180;44.788;10.366;2023-06-19T01:51:23;23.40;67.20
44477;DHT22;30180;44.788;10.366;2023-06-19T01:53:52;23.40;67.20
44477;DHT22;30180;44.788;10.366;2023-06-19T01:56:21;23.40;67.20
44477;DHT22;30180;44.788;10.366;2023-06-19T01:58:50;23.40;67.20
44477;DHT22;30180;44.788;10.366;2023-06-19T02:01:19;23.40;67.20
44477;DHT22;30180;44.788;10.366;2023-06-19T02:03:47;23.40;67.20
44477;DHT22;30180;44.788;10.366;2023-06-19T02:06:15;23.40;67.10
44477;DHT22;30180;44.788;10.366;2023-06-19T02:08:44;23.40;67.10
44477;DHT22;30180;44.788;10.366;2023-06-19T02:11:12;23.40;67.10
44477;DHT22;30180;44.788;10.366;2023-06-19T02:13:41;23.30;67.00
44477;DHT22;30180;44.788;10.366;2023-06-19T02:16:10;23.40;67.00
44477;DHT22;30180;44.788;10.366;2023-06-19T02:18:38;23.40;67.00
44477;DHT22;30180;44.788;10.366;2023-06-19T02:21:06;23.40;67.10
44477;DHT22;30180;44.788;10.366;2023-06-19T02:23:35;23.30;67.00
44477;DHT22;30180;44.788;10.366;2023-06-19T02:26:03;23.40;67.00
44477;DHT22;30180;44.788;10.366;2023-06-19T02:28:31;23.40;67.00
44477;DHT22;30180;44.788;10.366;2023-06-19T02:31:01;23.40;67.00
44477;DHT22;30180;44.788;10.366;2023-06-19T02:33:29;23.40;67.00
44477;DHT22;30180;44.788;10.366;2023-06-19T02:35:57;23.40;67.00
44477;DHT22;30180;44.788;10.366;2023-06-19T02:38:26;23.40;67.00
44477;DHT22;30180;44.788;10.366;2023-06-19T02:40:55;23.40;66.90
44477;DHT22;30180;44.788;10.366;2023-06-19T02:43:24;23.40;66.90
44477;DHT22;30180;44.788;10.366;2023-06-19T02:45:52;23.40;66.90
44477;DHT22;30180;44.788;10.366;2023-06-19T02:48:22;23.30;66.80
44477;DHT22;30180;44.788;10.366;2023-06-19T02:50:51;23.30;66.80
44477;DHT22;30180;44.788;10.366;2023-06-19T02:53:19;23.30;66.80
44477;DHT22;30180;44.788;10.366;2023-06-19T02:55:47;23.40;66.80
44477;DHT22;30180;44.788;10.366;2023-06-19T02:58:15;23.30;66.80
44477;DHT22;30180;44.788;10.366;2023-06-19T03:00:45;23.30;66.80
44477;DHT22;30180;44.788;10.366;2023-06-19T03:03:13;23.40;66.80
44477;DHT22;30180;44.788;10.366;2023-06-19T03:05:43;23.40;66.80
44477;DHT22;30180;44.788;10.366;2023-06-19T03:08:11;23.30;66.70
44477;DHT22;30180;44.788;10.366;2023-06-19T03:10:40;23.40;66.80
44477;DHT22;30180;44.788;10.366;2023-06-19T03:13:08;23.40;66.70
44477;DHT22;30180;44.788;10.366;2023-06-19T03:15:36;23.40;66.70
44477;DHT22;30180;44.788;10.366;2023-06-19T03:18:05;23.40;66.70
44477;DHT22;30180;44.788;10.366;2023-06-19T03:20:35;23.30;66.60
44477;DHT22;30180;44.788;10.366;2023-06-19T03:23:05;23.30;66.60
44477;DHT22;30180;44.788;10.366;2023-06-19T03:25:33;23.40;66.70
44477;DHT22;30180;44.788;10.366;2023-06-19T03:28:02;23.30;66.60
44477;DHT22;30180;44.788;10.366;2023-06-19T03:30:31;23.40;66.60
44477;DHT22;30180;44.788;10.366;2023-06-19T03:32:59;23.40;66.60
44477;DHT22;30180;44.788;10.366;2023-06-19T03:35:27;23.30;66.60
44477;DHT22;30180;44.788;10.366;2023-06-19T03:37:56;23.40;66.60
44477;DHT22;30180;44.788;10.366;2023-06-19T03:40:26;23.30;67.20
44477;DHT22;30180;44.788;10.366;2023-06-19T03:42:58;23.30;66.50
44477;DHT22;30180;44.788;10.366;2023-06-19T03:45:26;23.30;66.50
44477;DHT22;30180;44.788;10.366;2023-06-19T03:47:54;23.40;66.50
44477;DHT22;30180;44.788;10.366;2023-06-19T03:50:22;23.40;66.50
44477;DHT22;30180;44.788;10.366;2023-06-19T03:52:53;23.40;66.50
44477;DHT22;30180;44.788;10.366;2023-06-19T03:55:21;23.30;66.50
44477;DHT22;30180;44.788;10.366;2023-06-19T03:57:51;23.40;66.50
44477;DHT22;30180;44.788;10.366;2023-06-19T04:00:19;23.30;66.40
44477;DHT22;30180;44.788;10.366;2023-06-19T04:02:49;23.40;66.50
44477;DHT22;30180;44.788;10.366;2023-06-19T04:05:17;23.40;66.50
44477;DHT22;30180;44.788;10.366;2023-06-19T04:07:46;23.40;66.50
44477;DHT22;30180;44.788;10.366;2023-06-19T04:10:15;23.30;66.40
44477;DHT22;30180;44.788;10.366;2023-06-19T04:12:43;23.30;67.00
44477;DHT22;30180;44.788;10.366;2023-06-19T04:15:14;23.40;66.40
44477;DHT22;30180;44.788;10.366;2023-06-19T04:17:42;23.30;66.40
44477;DHT22;30180;44.788;10.366;2023-06-19T04:20:11;23.30;66.40
44477;DHT22;30180;44.788;10.366;2023-06-19T04:22:40;23.40;66.40
44477;DHT22;30180;44.788;10.366;2023-06-19T04:25:09;23.40;66.40
44477;DHT22;30180;44.788;10.366;2023-06-19T04:27:38;23.30;66.30
44477;DHT22;30180;44.788;10.366;2023-06-19T04:30:07;23.40;66.40
44477;DHT22;30180;44.788;10.366;2023-06-19T04:32:37;23.40;66.30
44477;DHT22;30180;44.788;10.366;2023-06-19T04:35:08;23.30;66.90
44477;DHT22;30180;44.788;10.366;2023-06-19T04:37:36;23.30;66.30
44477;DHT22;30180;44.788;10.366;2023-06-19T04:40:06;23.30;66.20
44477;DHT22;30180;44.788;10.366;2023-06-19T04:42:35;23.40;66.30
44477;DHT22;30180;44.788;10.366;2023-06-19T04:45:06;23.30;66.30
44477;DHT22;30180;44.788;10.366;2023-06-19T04:47:38;23.30;66.20
44477;DHT22;30180;44.788;10.366;2023-06-19T04:50:18;23.30;66.20
44477;DHT22;30180;44.788;10.366;2023-06-19T04:52:47;23.40;66.20
44477;DHT22;30180;44.788;10.366;2023-06-19T04:55:18;23.30;66.20
44477;DHT22;30180;44.788;10.366;2023-06-19T04:57:46;23.30;66.20
44477;DHT22;30180;44.788;10.366;2023-06-19T05:00:16;23.30;66.20
44477;DHT22;30180;44.788;10.366;2023-06-19T05:02:47;23.30;66.20
44477;DHT22;30180;44.788;10.366;2023-06-19T05:05:16;23.30;66.20
44477;DHT22;30180;44.788;10.366;2023-06-19T05:07:49;23.30;66.20
44477;DHT22;30180;44.788;10.366;2023-06-19T05:10:17;23.40;66.20
44477;DHT22;30180;44.788;10.366;2023-06-19T05:12:46;23.40;66.20
44477;DHT22;30180;44.788;10.366;2023-06-19T05:15:14;23.40;66.20
44477;DHT22;30180;44.788;10.366;2023-06-19T05:17:42;23.30;66.20
44477;DHT22;30180;44.788;10.366;2023-06-19T05:20:14;23.40;66.20
44477;DHT22;30180;44.788;10.366;2023-06-19T05:22:43;23.40;66.20
44477;DHT22;30180;44.788;10.366;2023-06-19T05:25:11;23.40;66.20
44477;DHT22;30180;44.788;10.366;2023-06-19T05:27:40;23.40;66.20
44477;DHT22;30180;44.788;10.366;2023-06-19T05:30:09;23.40;66.20
44477;DHT22;30180;44.788;10.366;2023-06-19T05:32:38;23.30;66.20
44477;DHT22;30180;44.788;10.366;2023-06-19T05:35:07;23.40;66.20
44477;DHT22;30180;44.788;10.366;2023-06-19T05:37:37;23.40;66.20
44477;DHT22;30180;44.788;10.366;2023-06-19T05:40:07;23.30;66.20
44477;DHT22;30180;44.788;10.366;2023-06-19T05:42:36;23.40;66.20
44477;DHT22;30180;44.788;10.366;2023-06-19T05:45:05;23.40;66.20
44477;DHT22;30180;44.788;10.366;2023-06-19T05:47:34;23.40;66.20
44477;DHT22;30180;44.788;10.366;2023-06-19T05:50:04;23.40;66.20
44477;DHT22;30180;44.788;10.366;2023-06-19T05:52:32;23.40;66.20
44477;DHT22;30180;44.788;10.366;2023-06-19T05:55:02;23.40;66.20
44477;DHT22;30180;44.788;10.366;2023-06-19T05:57:31;23.40;66.20
44477;DHT22;30180;44.788;10.366;2023-06-19T06:00:00;23.40;66.20
44477;DHT22;30180;44.788;10.366;2023-06-19T06:02:30;23.30;66.10
44477;DHT22;30180;44.788;10.366;2023-06-19T06:04:58;23.40;66.20
44477;DHT22;30180;44.788;10.366;2023-06-19T06:07:27;23.40;66.20
44477;DHT22;30180;44.788;10.366;2023-06-19T06:09:57;23.30;66.20
44477;DHT22;30180;44.788;10.366;2023-06-19T06:12:27;23.30;66.10
44477;DHT22;30180;44.788;10.366;2023-06-19T06:14:55;23.40;66.20
44477;DHT22;30180;44.788;10.366;2023-06-19T06:17:23;23.30;66.10
44477;DHT22;30180;44.788;10.366;2023-06-19T06:19:51;23.30;66.20
44477;DHT22;30180;44.788;10.366;2023-06-19T06:22:20;23.30;66.70
44477;DHT22;30180;44.788;10.366;2023-06-19T06:24:48;23.40;66.20
44477;DHT22;30180;44.788;10.366;2023-06-19T06:27:16;23.30;66.20
44477;DHT22;30180;44.788;10.366;2023-06-19T06:29:46;23.30;66.20
44477;DHT22;30180;44.788;10.366;2023-06-19T06:32:14;23.40;66.20
44477;DHT22;30180;44.788;10.366;2023-06-19T06:34:42;23.40;66.20
44477;DHT22;30180;44.788;10.366;2023-06-19T06:37:10;23.40;66.20
44477;DHT22;30180;44.788;10.366;2023-06-19T06:39:39;23.40;66.20
44477;DHT22;30180;44.788;10.366;2023-06-19T06:42:07;23.40;66.20
44477;DHT22;30180;44.788;10.366;2023-06-19T06:44:35;23.40;66.20
44477;DHT22;30180;44.788;10.366;2023-06-19T06:47:05;23.40;66.20
44477;DHT22;30180;44.788;10.366;2023-06-19T06:49:33;23.40;66.20
44477;DHT22;30180;44.788;10.366;2023-06-19T06:52:03;23.40;66.20
44477;DHT22;30180;44.788;10.366;2023-06-19T06:54:32;23.40;66.20
44477;DHT22;30180;44.788;10.366;2023-06-19T06:57:00;23.40;66.20
44477;DHT22;30180;44.788;10.366;2023-06-19T06:59:28;23.40;66.20
44477;DHT22;30180;44.788;10.366;2023-06-19T07:01:57;23.40;66.20
44477;DHT22;30180;44.788;10.366;2023-06-19T07:04:26;23.40;66.20
44477;DHT22;30180;44.788;10.366;2023-06-19T07:06:55;23.40;66.20
44477;DHT22;30180;44.788;10.366;2023-06-19T07:09:23;23.40;66.20
44477;DHT22;30180;44.788;10.366;2023-06-19T07:11:51;23.40;66.20
44477;DHT22;30180;44.788;10.366;2023-06-19T07:14:20;23.40;66.20
44477;DHT22;30180;44.788;10.366;2023-06-19T07:16:49;23.40;66.20
44477;DHT22;30180;44.788;10.366;2023-06-19T07:19:18;23.40;66.20
44477;DHT22;30180;44.788;10.366;2023-06-19T07:21:49;23.40;66.20
44477;DHT22;30180;44.788;10.366;2023-06-19T07:24:17;23.40;66.20
44477;DHT22;30180;44.788;10.366;2023-06-19T07:26:46;23.40;66.20
44477;DHT22;30180;44.788;10.366;2023-06-19T07:29:14;23.40;66.20
44477;DHT22;30180;44.788;10.366;2023-06-19T07:31:43;23.40;66.20
44477;DHT22;30180;44.788;10.366;2023-06-19T07:34:11;23.40;66.20
44477;DHT22;30180;44.788;10.366;2023-06-19T07:36:39;23.40;66.20
44477;DHT22;30180;44.788;10.366;2023-06-19T07:39:10;23.40;66.20
44477;DHT22;30180;44.788;10.366;2023-06-19T07:41:38;23.40;66.30
44477;DHT22;30180;44.788;10.366;2023-06-19T07:44:07;23.40;66.20
44477;DHT22;30180;44.788;10.366;2023-06-19T07:46:35;23.40;66.20
44477;DHT22;30180;44.788;10.366;2023-06-19T07:49:04;23.40;66.20
44477;DHT22;30180;44.788;10.366;2023-06-19T07:51:32;23.40;66.20
44477;DHT22;30180;44.788;10.366;2023-06-19T07:54:00;23.40;66.20
44477;DHT22;30180;44.788;10.366;2023-06-19T07:56:30;23.40;66.40
44477;DHT22;30180;44.788;10.366;2023-06-19T07:58:59;23.40;66.30
44477;DHT22;30180;44.788;10.366;2023-06-19T08:01:29;23.40;66.20
44477;DHT22;30180;44.788;10.366;2023-06-19T08:03:57;23.50;66.90
44477;DHT22;30180;44.788;10.366;2023-06-19T08:06:26;23.50;66.30
44477;DHT22;30180;44.788;10.366;2023-06-19T08:08:54;23.50;66.30
44477;DHT22;30180;44.788;10.366;2023-06-19T08:11:23;23.50;66.30
44477;DHT22;30180;44.788;10.366;2023-06-19T08:13:52;23.50;66.30
44477;DHT22;30180;44.788;10.366;2023-06-19T08:16:21;23.50;66.30
44477;DHT22;30180;44.788;10.366;2023-06-19T08:18:49;23.50;66.30
44477;DHT22;30180;44.788;10.366;2023-06-19T08:21:17;23.50;66.30
44477;DHT22;30180;44.788;10.366;2023-06-19T08:23:48;23.50;66.30
44477;DHT22;30180;44.788;10.366;2023-06-19T08:26:16;23.50;66.30
44477;DHT22;30180;44.788;10.366;2023-06-19T08:28:45;23.50;66.40
44477;DHT22;30180;44.788;10.366;2023-06-19T08:31:14;23.50;66.30
44477;DHT22;30180;44.788;10.366;2023-06-19T08:33:43;23.50;66.30
44477;DHT22;30180;44.788;10.366;2023-06-19T08:36:12;23.50;66.40
44477;DHT22;30180;44.788;10.366;2023-06-19T08:38:40;23.50;66.40
44477;DHT22;30180;44.788;10.366;2023-06-19T08:41:08;23.50;66.40
44477;DHT22;30180;44.788;10.366;2023-06-19T08:43:36;23.50;66.40
44477;DHT22;30180;44.788;10.366;2023-06-19T08:46:10;23.50;66.40
44477;DHT22;30180;44.788;10.366;2023-06-19T08:48:40;23.50;66.40
44477;DHT22;30180;44.788;10.366;2023-06-19T08:51:10;23.50;66.40
44477;DHT22;30180;44.788;10.366;2023-06-19T08:53:45;23.50;66.40
44477;DHT22;30180;44.788;10.366;2023-06-19T08:56:13;23.50;66.40
44477;DHT22;30180;44.788;10.366;2023-06-19T08:58:42;23.50;66.40
44477;DHT22;30180;44.788;10.366;2023-06-19T09:01:10;23.50;66.40
44477;DHT22;30180;44.788;10.366;2023-06-19T09:03:41;23.50;66.40
44477;DHT22;30180;44.788;10.366;2023-06-19T09:06:11;23.50;66.40
44477;DHT22;30180;44.788;10.366;2023-06-19T09:08:42;23.50;66.40
44477;DHT22;30180;44.788;10.366;2023-06-19T09:11:11;23.50;66.40
44477;DHT22;30180;44.788;10.366;2023-06-19T09:13:39;23.50;66.40
44477;DHT22;30180;44.788;10.366;2023-06-19T09:16:08;23.50;66.40
44477;DHT22;30180;44.788;10.366;2023-06-19T09:18:45;23.50;66.40
44477;DHT22;30180;44.788;10.366;2023-06-19T09:21:17;23.50;66.50
44477;DHT22;30180;44.788;10.366;2023-06-19T09:23:46;23.50;66.50
44477;DHT22;30180;44.788;10.366;2023-06-19T09:26:15;23.50;66.50
44477;DHT22;30180;44.788;10.366;2023-06-19T09:28:44;23.50;66.50
44477;DHT22;30180;44.788;10.366;2023-06-19T09:31:13;23.50;66.40
44477;DHT22;30180;44.788;10.366;2023-06-19T09:33:41;23.50;66.40
44477;DHT22;30180;44.788;10.366;2023-06-19T09:36:12;23.50;66.40
44477;DHT22;30180;44.788;10.366;2023-06-19T09:38:41;23.50;66.50
44477;DHT22;30180;44.788;10.366;2023-06-19T09:41:09;23.50;66.50
44477;DHT22;30180;44.788;10.366;2023-06-19T09:43:40;23.50;66.50
44477;DHT22;30180;44.788;10.366;2023-06-19T09:46:11;23.50;66.50
44477;DHT22;30180;44.788;10.366;2023-06-19T09:48:42;23.50;66.50
44477;DHT22;30180;44.788;10.366;2023-06-19T09:51:17;23.50;66.50
44477;DHT22;30180;44.788;10.366;2023-06-19T09:53:48;23.50;66.50
44477;DHT22;30180;44.788;10.366;2023-06-19T09:56:18;23.50;66.50
44477;DHT22;30180;44.788;10.366;2023-06-19T09:58:50;23.50;66.50
44477;DHT22;30180;44.788;10.366;2023-06-19T10:01:20;23.50;66.50
44477;DHT22;30180;44.788;10.366;2023-06-19T10:03:49;23.50;66.50
44477;DHT22;30180;44.788;10.366;2023-06-19T10:06:22;23.50;66.50
44477;DHT22;30180;44.788;10.366;2023-06-19T10:08:51;23.50;66.60
44477;DHT22;30180;44.788;10.366;2023-06-19T10:11:19;23.50;66.60
44477;DHT22;30180;44.788;10.366;2023-06-19T10:13:47;23.50;66.60
44477;DHT22;30180;44.788;10.366;2023-06-19T10:16:22;23.50;66.60
44477;DHT22;30180;44.788;10.366;2023-06-19T10:18:55;23.50;66.60
44477;DHT22;30180;44.788;10.366;2023-06-19T10:21:24;23.50;66.60
44477;DHT22;30180;44.788;10.366;2023-06-19T10:23:56;23.50;66.60
44477;DHT22;30180;44.788;10.366;2023-06-19T10:26:35;23.50;66.60
44477;DHT22;30180;44.788;10.366;2023-06-19T10:29:14;23.50;66.60
44477;DHT22;30180;44.788;10.366;2023-06-19T10:31:42;23.50;66.70
44477;DHT22;30180;44.788;10.366;2023-06-19T10:34:11;23.50;66.70
44477;DHT22;30180;44.788;10.366;2023-06-19T10:36:41;23.50;66.70
44477;DHT22;30180;44.788;10.366;2023-06-19T10:39:09;23.50;66.70
44477;DHT22;30180;44.788;10.366;2023-06-19T10:41:39;23.50;66.70
44477;DHT22;30180;44.788;10.366;2023-06-19T10:44:08;23.50;66.70
44477;DHT22;30180;44.788;10.366;2023-06-19T10:46:39;23.50;66.70
44477;DHT22;30180;44.788;10.366;2023-06-19T10:49:08;23.50;66.70
44477;DHT22;30180;44.788;10.366;2023-06-19T10:51:39;23.50;66.70
44477;DHT22;30180;44.788;10.366;2023-06-19T10:54:09;23.50;66.70
44477;DHT22;30180;44.788;10.366;2023-06-19T10:56:38;23.50;66.80
44477;DHT22;30180;44.788;10.366;2023-06-19T10:59:07;23.60;66.90
44477;DHT22;30180;44.788;10.366;2023-06-19T11:01:37;23.60;66.80
44477;DHT22;30180;44.788;10.366;2023-06-19T11:04:06;23.60;66.70
44477;DHT22;30180;44.788;10.366;2023-06-19T11:06:36;23.60;66.70
44477;DHT22;30180;44.788;10.366;2023-06-19T11:09:05;23.60;66.70
44477;DHT22;30180;44.788;10.366;2023-06-19T11:11:39;23.50;66.60
44477;DHT22;30180;44.788;10.366;2023-06-19T11:14:09;23.60;66.60
44477;DHT22;30180;44.788;10.366;2023-06-19T11:16:39;23.60;66.60
44477;DHT22;30180;44.788;10.366;2023-06-19T11:19:09;23.60;66.60
44477;DHT22;30180;44.788;10.366;2023-06-19T11:21:37;23.60;66.60
44477;DHT22;30180;44.788;10.366;2023-06-19T11:24:10;23.60;66.60
44477;DHT22;30180;44.788;10.366;2023-06-19T11:26:41;23.60;66.60
44477;DHT22;30180;44.788;10.366;2023-06-19T11:29:17;23.60;66.50
44477;DHT22;30180;44.788;10.366;2023-06-19T11:31:46;23.60;66.50
44477;DHT22;30180;44.788;10.366;2023-06-19T11:34:15;23.60;66.50
44477;DHT22;30180;44.788;10.366;2023-06-19T11:36:44;23.60;66.50
44477;DHT22;30180;44.788;10.366;2023-06-19T11:39:15;23.60;66.40
44477;DHT22;30180;44.788;10.366;2023-06-19T11:41:45;23.60;66.40
44477;DHT22;30180;44.788;10.366;2023-06-19T11:44:15;23.60;66.40
44477;DHT22;30180;44.788;10.366;2023-06-19T11:46:43;23.60;66.30
44477;DHT22;30180;44.788;10.366;2023-06-19T11:49:12;23.50;66.30
44477;DHT22;30180;44.788;10.366;2023-06-19T11:51:41;23.60;66.30
44477;DHT22;30180;44.788;10.366;2023-06-19T11:54:10;23.50;66.20
44477;DHT22;30180;44.788;10.366;2023-06-19T11:56:39;23.60;66.30
44477;DHT22;30180;44.788;10.366;2023-06-19T11:59:09;23.50;66.20
44477;DHT22;30180;44.788;10.366;2023-06-19T12:01:37;23.60;66.20
44477;DHT22;30180;44.788;10.366;2023-06-19T12:04:06;23.60;66.20
44477;DHT22;30180;44.788;10.366;2023-06-19T12:06:35;23.50;66.10
44477;DHT22;30180;44.788;10.366;2023-06-19T12:09:04;23.50;66.10
44477;DHT22;30180;44.788;10.366;2023-06-19T12:11:33;23.50;66.00
44477;DHT22;30180;44.788;10.366;2023-06-19T12:14:01;23.50;66.00
44477;DHT22;30180;44.788;10.366;2023-06-19T12:16:30;23.50;66.00
44477;DHT22;30180;44.788;10.366;2023-06-19T12:18:59;23.50;66.00
44477;DHT22;30180;44.788;10.366;2023-06-19T12:21:27;23.50;66.00
44477;DHT22;30180;44.788;10.366;2023-06-19T12:24:05;23.50;66.00
44477;DHT22;30180;44.788;10.366;2023-06-19T12:26:34;23.50;65.90
44477;DHT22;30180;44.788;10.366;2023-06-19T12:29:04;23.50;65.90
44477;DHT22;30180;44.788;10.366;2023-06-19T12:31:34;23.50;65.90
44477;DHT22;30180;44.788;10.366;2023-06-19T12:34:04;23.60;66.00
44477;DHT22;30180;44.788;10.366;2023-06-19T12:36:53;23.50;65.90
44477;DHT22;30180;44.788;10.366;2023-06-19T12:39:24;23.50;65.90
44477;DHT22;30180;44.788;10.366;2023-06-19T12:41:53;23.60;65.90
44477;DHT22;30180;44.788;10.366;2023-06-19T12:44:22;23.50;65.80
44477;DHT22;30180;44.788;10.366;2023-06-19T12:46:53;23.60;65.90
44477;DHT22;30180;44.788;10.366;2023-06-19T12:49:21;23.60;65.90
44477;DHT22;30180;44.788;10.366;2023-06-19T12:51:49;23.50;65.80
44477;DHT22;30180;44.788;10.366;2023-06-19T12:54:19;23.50;65.80
44477;DHT22;30180;44.788;10.366;2023-06-19T12:56:48;23.60;65.80
44477;DHT22;30180;44.788;10.366;2023-06-19T12:59:17;23.60;65.80
44477;DHT22;30180;44.788;10.366;2023-06-19T13:01:46;23.50;65.70
44477;DHT22;30180;44.788;10.366;2023-06-19T13:04:16;23.50;65.70
44477;DHT22;30180;44.788;10.366;2023-06-19T13:06:44;23.60;65.80
44477;DHT22;30180;44.788;10.366;2023-06-19T13:09:13;23.50;65.70
44477;DHT22;30180;44.788;10.366;2023-06-19T13:11:41;23.60;65.80
44477;DHT22;30180;44.788;10.366;2023-06-19T13:14:09;23.50;65.70
44477;DHT22;30180;44.788;10.366;2023-06-19T13:16:38;23.60;65.70
44477;DHT22;30180;44.788;10.366;2023-06-19T13:19:14;23.60;65.70
44477;DHT22;30180;44.788;10.366;2023-06-19T13:21:43;23.60;65.70
44477;DHT22;30180;44.788;10.366;2023-06-19T13:24:11;23.60;65.70
44477;DHT22;30180;44.788;10.366;2023-06-19T13:26:40;23.60;65.70
44477;DHT22;30180;44.788;10.366;2023-06-19T13:29:08;23.60;65.70
44477;DHT22;30180;44.788;10.366;2023-06-19T13:31:36;23.60;65.70
44477;DHT22;30180;44.788;10.366;2023-06-19T13:34:05;23.60;65.70
44477;DHT22;30180;44.788;10.366;2023-06-19T13:36:35;23.60;65.70
44477;DHT22;30180;44.788;10.366;2023-06-19T13:39:03;23.60;65.70
44477;DHT22;30180;44.788;10.366;2023-06-19T13:41:32;23.60;65.70
44477;DHT22;30180;44.788;10.366;2023-06-19T13:44:01;23.60;65.70
44477;DHT22;30180;44.788;10.366;2023-06-19T13:46:29;23.60;65.70
44477;DHT22;30180;44.788;10.366;2023-06-19T13:48:58;23.60;65.70
44477;DHT22;30180;44.788;10.366;2023-06-19T13:51:27;23.60;65.60
44477;DHT22;30180;44.788;10.366;2023-06-19T13:53:57;23.60;65.70
44477;DHT22;30180;44.788;10.366;2023-06-19T13:56:25;23.60;65.60
44477;DHT22;30180;44.788;10.366;2023-06-19T13:58:54;23.60;65.60
44477;DHT22;30180;44.788;10.366;2023-06-19T14:01:22;23.60;65.70
44477;DHT22;30180;44.788;10.366;2023-06-19T14:03:52;23.60;65.70
44477;DHT22;30180;44.788;10.366;2023-06-19T14:06:20;23.60;65.60
44477;DHT22;30180;44.788;10.366;2023-06-19T14:08:48;23.60;65.60
44477;DHT22;30180;44.788;10.366;2023-06-19T14:11:18;23.60;66.00
44477;DHT22;30180;44.788;10.366;2023-06-19T14:13:47;23.60;65.70
44477;DHT22;30180;44.788;10.366;2023-06-19T14:16:15;23.60;65.70
44477;DHT22;30180;44.788;10.366;2023-06-19T14:18:43;23.60;65.70
44477;DHT22;30180;44.788;10.366;2023-06-19T14:21:12;23.60;65.70
44477;DHT22;30180;44.788;10.366;2023-06-19T14:23:40;23.60;65.70
44477;DHT22;30180;44.788;10.366;2023-06-19T14:26:10;23.60;65.70
44477;DHT22;30180;44.788;10.366;2023-06-19T14:28:40;23.60;65.70
44477;DHT22;30180;44.788;10.366;2023-06-19T14:31:08;23.60;65.70
44477;DHT22;30180;44.788;10.366;2023-06-19T14:33:37;23.70;65.70
44477;DHT22;30180;44.788;10.366;2023-06-19T14:36:05;23.70;65.80
44477;DHT22;30180;44.788;10.366;2023-06-19T14:38:34;23.70;65.80
44477;DHT22;30180;44.788;10.366;2023-06-19T14:41:02;23.70;65.80
44477;DHT22;30180;44.788;10.366;2023-06-19T14:43:30;23.70;65.80
44477;DHT22;30180;44.788;10.366;2023-06-19T14:46:01;23.70;65.80
44477;DHT22;30180;44.788;10.366;2023-06-19T14:48:31;23.70;65.80
44477;DHT22;30180;44.788;10.366;2023-06-19T14:51:00;23.70;65.80
44477;DHT22;30180;44.788;10.366;2023-06-19T14:53:30;23.70;65.70
44477;DHT22;30180;44.788;10.366;2023-06-19T14:55:59;23.70;65.80
44477;DHT22;30180;44.788;10.366;2023-06-19T14:58:27;23.70;65.70
44477;DHT22;30180;44.788;10.366;2023-06-19T15:00:55;23.70;65.70
44477;DHT22;30180;44.788;10.366;2023-06-19T15:03:26;23.70;65.70
44477;DHT22;30180;44.788;10.366;2023-06-19T15:05:54;23.70;65.70
44477;DHT22;30180;44.788;10.366;2023-06-19T15:08:22;23.70;65.70
44477;DHT22;30180;44.788;10.366;2023-06-19T15:10:51;23.70;65.80
44477;DHT22;30180;44.788;10.366;2023-06-19T15:13:19;23.70;65.80
44477;DHT22;30180;44.788;10.366;2023-06-19T15:15:48;23.70;65.80
44477;DHT22;30180;44.788;10.366;2023-06-19T15:18:17;23.70;65.80
44477;DHT22;30180;44.788;10.366;2023-06-19T15:20:47;23.70;65.80
44477;DHT22;30180;44.788;10.366;2023-06-19T15:23:16;23.70;65.80
44477;DHT22;30180;44.788;10.366;2023-06-19T15:25:45;23.70;65.80
44477;DHT22;30180;44.788;10.366;2023-06-19T15:28:14;23.70;65.80